sensor_id;sensor_type;location;lat;lon;timestamp;pressure;altitude;pressure_sealevel;temperature;humidity
23643;BME280;11998;55.788;37.572;2022-10-16T00:00:22;100245.00;;;6.67;100.00
23643;BME280;11998;55.788;37.572;2022-10-16T00:01:25;100238.84;;;6.67;100.00
23643;BME280;11998;55.788;37.572;2022-10-16T00:02:26;100255.53;;;6.67;100.00
23643;BME280;11998;55.788;37.572;2022-10-16T00:03:27;100247.63;;;6.67;100.00
23643;BME280;11998;55.788;37.572;2022-10-16T00:04:27;100246.75;;;6.68;100.00
23643;BME280;11998;55.788;37.572;2022-10-16T00:05:28;100247.63;;;6.69;100.00
23643;BME280;11998;55.788;37.572;2022-10-16T00:06:29;100252.91;;;6.69;100.00
23643;BME280;11998;55.788;37.572;2022-10-16T00:07:30;100250.25;;;6.67;100.00
23643;BME280;11998;55.788;37.572;2022-10-16T00:08:31;100247.63;;;6.66;100.00
23643;BME280;11998;55.788;37.572;2022-10-16T00:09:31;100254.63;;;6.65;100.00
23643;BME280;11998;55.788;37.572;2022-10-16T00:10:32;100254.63;;;6.65;100.00
23643;BME280;11998;55.788;37.572;2022-10-16T00:11:35;100255.53;;;6.67;100.00
23643;BME280;11998;55.788;37.572;2022-10-16T00:12:39;100254.63;;;6.65;100.00
23643;BME280;11998;55.788;37.572;2022-10-16T00:13:41;100257.25;;;6.62;100.00
23643;BME280;11998;55.788;37.572;2022-10-16T00:14:41;100259.03;;;6.63;100.00
23643;BME280;11998;55.788;37.572;2022-10-16T00:15:44;100251.97;;;6.59;100.00
23643;BME280;11998;55.788;37.572;2022-10-16T00:16:44;100260.75;;;6.58;100.00
23643;BME280;11998;55.788;37.572;2022-10-16T00:17:45;100262.47;;;6.56;100.00
23643;BME280;11998;55.788;37.572;2022-10-16T00:18:45;100262.47;;;6.56;100.00
23643;BME280;11998;55.788;37.572;2022-10-16T00:19:46;100258.97;;;6.57;100.00
23643;BME280;11998;55.788;37.572;2022-10-16T00:20:46;100257.25;;;6.59;100.00
23643;BME280;11998;55.788;37.572;2022-10-16T00:21:47;100258.97;;;6.57;100.00
23643;BME280;11998;55.788;37.572;2022-10-16T00:22:47;100260.75;;;6.58;100.00
23643;BME280;11998;55.788;37.572;2022-10-16T00:23:52;100265.13;;;6.58;100.00
23643;BME280;11998;55.788;37.572;2022-10-16T00:24:53;100260.75;;;6.58;100.00
23643;BME280;11998;55.788;37.572;2022-10-16T00:25:58;100267.72;;;6.56;100.00
23643;BME280;11998;55.788;37.572;2022-10-16T00:26:59;100269.47;;;6.54;100.00
23643;BME280;11998;55.788;37.572;2022-10-16T00:28:00;100265.97;;;6.54;100.00
23643;BME280;11998;55.788;37.572;2022-10-16T00:29:01;100261.56;;;6.50;100.00
23643;BME280;11998;55.788;37.572;2022-10-16T00:30:03;100265.06;;;6.52;100.00
23643;BME280;11998;55.788;37.572;2022-10-16T00:31:05;100262.44;;;6.50;100.00
23643;BME280;11998;55.788;37.572;2022-10-16T00:32:06;100268.56;;;6.49;100.00
23643;BME280;11998;55.788;37.572;2022-10-16T00:33:06;100259.78;;;6.47;100.00
23643;BME280;11998;55.788;37.572;2022-10-16T00:34:07;100262.44;;;6.47;100.00
23643;BME280;11998;55.788;37.572;2022-10-16T00:35:07;100260.66;;;6.47;100.00
23643;BME280;11998;55.788;37.572;2022-10-16T00:36:11;100263.25;;;6.44;100.00
23643;BME280;11998;55.788;37.572;2022-10-16T00:37:13;100279.03;;;6.41;100.00
23643;BME280;11998;55.788;37.572;2022-10-16T00:38:14;100272.88;;;6.41;100.00
23643;BME280;11998;55.788;37.572;2022-10-16T00:39:14;100270.25;;;6.39;100.00
23643;BME280;11998;55.788;37.572;2022-10-16T00:40:16;100273.75;;;6.38;100.00
23643;BME280;11998;55.788;37.572;2022-10-16T00:41:17;100281.63;;;6.37;100.00
23643;BME280;11998;55.788;37.572;2022-10-16T00:42:18;100275.50;;;6.35;100.00
23643;BME280;11998;55.788;37.572;2022-10-16T00:43:42;100271.03;;;6.31;100.00
23643;BME280;11998;55.788;37.572;2022-10-16T00:44:54;100281.53;;;6.26;100.00
23643;BME280;11998;55.788;37.572;2022-10-16T00:45:57;100271.00;;;6.25;100.00
23643;BME280;11998;55.788;37.572;2022-10-16T00:46:57;100271.00;;;6.25;100.00
23643;BME280;11998;55.788;37.572;2022-10-16T00:47:57;100280.66;;;6.23;100.00
23643;BME280;11998;55.788;37.572;2022-10-16T00:49:08;100279.78;;;6.24;100.00
23643;BME280;11998;55.788;37.572;2022-10-16T00:50:13;100279.75;;;6.21;100.00
23643;BME280;11998;55.788;37.572;2022-10-16T00:51:18;100270.94;;;6.18;100.00
23643;BME280;11998;55.788;37.572;2022-10-16T00:52:19;100278.84;;;6.20;100.00
23643;BME280;11998;55.788;37.572;2022-10-16T00:53:21;100279.72;;;6.19;100.00
23643;BME280;11998;55.788;37.572;2022-10-16T00:54:28;100281.44;;;6.15;100.00
23643;BME280;11998;55.788;37.572;2022-10-16T00:55:30;100283.22;;;6.16;100.00
23643;BME280;11998;55.788;37.572;2022-10-16T00:56:31;100284.94;;;6.14;100.00
23643;BME280;11998;55.788;37.572;2022-10-16T00:57:32;100283.19;;;6.13;100.00
23643;BME280;11998;55.788;37.572;2022-10-16T00:58:32;100282.31;;;6.11;100.00
23643;BME280;11998;55.788;37.572;2022-10-16T00:59:36;100286.66;;;6.09;100.00
23643;BME280;11998;55.788;37.572;2022-10-16T01:00:37;100288.38;;;6.07;100.00
23643;BME280;11998;55.788;37.572;2022-10-16T01:01:38;100285.75;;;6.07;100.00
23643;BME280;11998;55.788;37.572;2022-10-16T01:02:40;100284.84;;;6.05;100.00
23643;BME280;11998;55.788;37.572;2022-10-16T01:03:40;100288.34;;;6.04;100.00
23643;BME280;11998;55.788;37.572;2022-10-16T01:04:51;100284.84;;;6.05;100.00
23643;BME280;11998;55.788;37.572;2022-10-16T01:07:32;100284.81;;;5.99;100.00
23643;BME280;11998;55.788;37.572;2022-10-16T01:08:44;100286.50;;;5.94;100.00
23643;BME280;11998;55.788;37.572;2022-10-16T01:12:37;100282.91;;;5.89;100.00
23643;BME280;11998;55.788;37.572;2022-10-16T01:13:42;100285.53;;;5.86;100.00
23643;BME280;11998;55.788;37.572;2022-10-16T01:17:42;100291.59;;;5.82;100.00
23643;BME280;11998;55.788;37.572;2022-10-16T01:18:58;100290.72;;;5.81;100.00
23643;BME280;11998;55.788;37.572;2022-10-16T01:21:43;100293.31;;;5.77;100.00
23643;BME280;11998;55.788;37.572;2022-10-16T01:24:28;100289.78;;;5.75;100.00
23643;BME280;11998;55.788;37.572;2022-10-16T01:27:21;100295.03;;;5.72;100.00
23643;BME280;11998;55.788;37.572;2022-10-16T01:28:29;100301.16;;;5.71;100.00
23643;BME280;11998;55.788;37.572;2022-10-16T01:31:04;100303.72;;;5.68;100.00
23643;BME280;11998;55.788;37.572;2022-10-16T01:32:12;100301.97;;;5.67;100.00
23643;BME280;11998;55.788;37.572;2022-10-16T01:33:20;100305.44;;;5.66;100.00
23643;BME280;11998;55.788;37.572;2022-10-16T01:34:27;100300.19;;;5.66;100.00
23643;BME280;11998;55.788;37.572;2022-10-16T01:35:41;100301.06;;;5.66;100.00
23643;BME280;11998;55.788;37.572;2022-10-16T01:37:00;100301.94;;;5.64;100.00
23643;BME280;11998;55.788;37.572;2022-10-16T01:38:22;100296.66;;;5.60;100.00
23643;BME280;11998;55.788;37.572;2022-10-16T01:39:30;100297.53;;;5.61;100.00
23643;BME280;11998;55.788;37.572;2022-10-16T01:40:34;100304.53;;;5.60;100.00
23643;BME280;11998;55.788;37.572;2022-10-16T01:41:43;100307.16;;;5.60;100.00
23643;BME280;11998;55.788;37.572;2022-10-16T01:43:01;100303.63;;;5.58;100.00
23643;BME280;11998;55.788;37.572;2022-10-16T01:44:10;100307.97;;;5.58;100.00
23643;BME280;11998;55.788;37.572;2022-10-16T01:45:14;100308.91;;;5.58;100.00
23643;BME280;11998;55.788;37.572;2022-10-16T01:46:17;100307.97;;;5.56;100.00
23643;BME280;11998;55.788;37.572;2022-10-16T01:47:22;100305.34;;;5.56;100.00
23643;BME280;11998;55.788;37.572;2022-10-16T01:48:24;100301.84;;;5.57;100.00
23643;BME280;11998;55.788;37.572;2022-10-16T01:49:27;100307.97;;;5.56;100.00
23643;BME280;11998;55.788;37.572;2022-10-16T01:50:31;100307.97;;;5.56;100.00
23643;BME280;11998;55.788;37.572;2022-10-16T01:51:34;100305.34;;;5.56;100.00
23643;BME280;11998;55.788;37.572;2022-10-16T01:52:39;100306.22;;;5.55;100.00
23643;BME280;11998;55.788;37.572;2022-10-16T01:53:42;100305.31;;;5.53;100.00
23643;BME280;11998;55.788;37.572;2022-10-16T01:54:46;100305.31;;;5.53;100.00
23643;BME280;11998;55.788;37.572;2022-10-16T01:55:48;100305.31;;;5.53;100.00
23643;BME280;11998;55.788;37.572;2022-10-16T01:56:50;100312.31;;;5.54;100.00
23643;BME280;11998;55.788;37.572;2022-10-16T01:57:52;100305.31;;;5.53;100.00
23643;BME280;11998;55.788;37.572;2022-10-16T01:58:58;100305.31;;;5.53;100.00
23643;BME280;11998;55.788;37.572;2022-10-16T02:00:07;100302.66;;;5.52;100.00
23643;BME280;11998;55.788;37.572;2022-10-16T02:01:11;100307.03;;;5.51;100.00
23643;BME280;11998;55.788;37.572;2022-10-16T02:02:15;100310.56;;;5.52;100.00
23643;BME280;11998;55.788;37.572;2022-10-16T02:03:18;100304.41;;;5.50;100.00
23643;BME280;11998;55.788;37.572;2022-10-16T02:04:33;100303.53;;;5.49;100.00
23643;BME280;11998;55.788;37.572;2022-10-16T02:05:41;100310.50;;;5.47;100.00
23643;BME280;11998;55.788;37.572;2022-10-16T02:06:44;100313.13;;;5.47;100.00
23643;BME280;11998;55.788;37.572;2022-10-16T02:07:45;100309.59;;;5.45;100.00
23643;BME280;11998;55.788;37.572;2022-10-16T02:08:46;100309.59;;;5.45;100.00
23643;BME280;11998;55.788;37.572;2022-10-16T02:09:47;100314.81;;;5.44;100.00
23643;BME280;11998;55.788;37.572;2022-10-16T02:10:47;100306.94;;;5.45;100.00
23643;BME280;11998;55.788;37.572;2022-10-16T02:11:50;100303.50;;;5.46;100.00
23643;BME280;11998;55.788;37.572;2022-10-16T02:12:59;100305.19;;;5.44;100.00
23643;BME280;11998;55.788;37.572;2022-10-16T02:14:05;100301.66;;;5.42;100.00
23643;BME280;11998;55.788;37.572;2022-10-16T02:15:06;100298.19;;;5.43;100.00
23643;BME280;11998;55.788;37.572;2022-10-16T02:16:07;100311.31;;;5.45;100.00
23643;BME280;11998;55.788;37.572;2022-10-16T02:17:14;100305.16;;;5.41;100.00
23643;BME280;11998;55.788;37.572;2022-10-16T02:18:14;100318.31;;;5.41;100.00
23643;BME280;11998;55.788;37.572;2022-10-16T02:19:17;100317.44;;;5.42;100.00
23643;BME280;11998;55.788;37.572;2022-10-16T02:20:25;100315.66;;;5.41;100.00
23643;BME280;11998;55.788;37.572;2022-10-16T02:21:44;100316.56;;;5.42;100.00
23643;BME280;11998;55.788;37.572;2022-10-16T02:22:48;100313.03;;;5.41;100.00
23643;BME280;11998;55.788;37.572;2022-10-16T02:24:08;100313.00;;;5.37;100.00
23643;BME280;11998;55.788;37.572;2022-10-16T02:25:38;100306.00;;;5.37;100.00
23643;BME280;11998;55.788;37.572;2022-10-16T02:26:45;100320.00;;;5.36;100.00
23643;BME280;11998;55.788;37.572;2022-10-16T02:27:59;100319.09;;;5.34;100.00
23643;BME280;11998;55.788;37.572;2022-10-16T02:29:06;100323.50;;;5.37;100.00
23643;BME280;11998;55.788;37.572;2022-10-16T02:30:13;100324.38;;;5.37;100.00
23643;BME280;11998;55.788;37.572;2022-10-16T02:31:18;100317.38;;;5.36;100.00
23643;BME280;11998;55.788;37.572;2022-10-16T02:32:24;100325.25;;;5.36;100.00
23643;BME280;11998;55.788;37.572;2022-10-16T02:33:28;100321.75;;;5.36;100.00
23643;BME280;11998;55.788;37.572;2022-10-16T02:34:32;100326.13;;;5.35;100.00
23643;BME280;11998;55.788;37.572;2022-10-16T02:35:34;100326.13;;;5.35;100.00
23643;BME280;11998;55.788;37.572;2022-10-16T02:36:35;100327.81;;;5.33;100.00
23643;BME280;11998;55.788;37.572;2022-10-16T02:37:37;100327.81;;;5.33;100.00
23643;BME280;11998;55.788;37.572;2022-10-16T02:38:40;100326.94;;;5.32;100.00
23643;BME280;11998;55.788;37.572;2022-10-16T02:39:41;100326.97;;;5.34;100.00
23643;BME280;11998;55.788;37.572;2022-10-16T02:40:42;100325.25;;;5.35;100.00
23643;BME280;11998;55.788;37.572;2022-10-16T02:41:43;100323.47;;;5.34;100.00
23643;BME280;11998;55.788;37.572;2022-10-16T02:42:43;100326.13;;;5.35;100.00
23643;BME280;11998;55.788;37.572;2022-10-16T02:43:44;100324.34;;;5.34;100.00
23643;BME280;11998;55.788;37.572;2022-10-16T02:44:44;100324.34;;;5.34;100.00
23643;BME280;11998;55.788;37.572;2022-10-16T02:45:45;100331.28;;;5.30;100.00
23643;BME280;11998;55.788;37.572;2022-10-16T02:46:45;100331.31;;;5.32;100.00
23643;BME280;11998;55.788;37.572;2022-10-16T02:47:46;100326.03;;;5.29;100.00
23643;BME280;11998;55.788;37.572;2022-10-16T02:48:46;100326.91;;;5.29;100.00
23643;BME280;11998;55.788;37.572;2022-10-16T02:49:47;100326.91;;;5.29;100.00
23643;BME280;11998;55.788;37.572;2022-10-16T02:50:47;100328.63;;;5.27;100.00
23643;BME280;11998;55.788;37.572;2022-10-16T02:51:48;100332.13;;;5.26;100.00
23643;BME280;11998;55.788;37.572;2022-10-16T02:52:48;100326.81;;;5.22;100.00
23643;BME280;11998;55.788;37.572;2022-10-16T02:53:49;100327.69;;;5.21;100.00
23643;BME280;11998;55.788;37.572;2022-10-16T02:54:49;100329.41;;;5.20;100.00
23643;BME280;11998;55.788;37.572;2022-10-16T02:55:50;100335.53;;;5.19;100.00
23643;BME280;11998;55.788;37.572;2022-10-16T02:56:50;100334.66;;;5.20;100.00
23643;BME280;11998;55.788;37.572;2022-10-16T02:57:51;100339.84;;;5.16;100.00
23643;BME280;11998;55.788;37.572;2022-10-16T02:58:52;100339.00;;;5.17;100.00
23643;BME280;11998;55.788;37.572;2022-10-16T02:59:53;100336.34;;;5.15;100.00
23643;BME280;11998;55.788;37.572;2022-10-16T03:00:54;100336.34;;;5.14;100.00
23643;BME280;11998;55.788;37.572;2022-10-16T03:01:55;100338.06;;;5.12;100.00
23643;BME280;11998;55.788;37.572;2022-10-16T03:02:55;100337.19;;;5.11;100.00
23643;BME280;11998;55.788;37.572;2022-10-16T03:03:57;100338.06;;;5.12;100.00
23643;BME280;11998;55.788;37.572;2022-10-16T03:04:57;100339.78;;;5.10;100.00
23643;BME280;11998;55.788;37.572;2022-10-16T03:05:57;100337.16;;;5.10;100.00
23643;BME280;11998;55.788;37.572;2022-10-16T03:06:58;100341.47;;;5.08;100.00
23643;BME280;11998;55.788;37.572;2022-10-16T03:07:59;100347.63;;;5.08;100.00
23643;BME280;11998;55.788;37.572;2022-10-16T03:09:00;100344.97;;;5.07;100.00
23643;BME280;11998;55.788;37.572;2022-10-16T03:10:01;100350.19;;;5.04;100.00
23643;BME280;11998;55.788;37.572;2022-10-16T03:11:02;100345.81;;;5.03;100.00
23643;BME280;11998;55.788;37.572;2022-10-16T03:12:02;100352.78;;;5.00;100.00
23643;BME280;11998;55.788;37.572;2022-10-16T03:13:03;100342.28;;;5.00;100.00
23643;BME280;11998;55.788;37.572;2022-10-16T03:14:03;100348.38;;;4.99;100.00
23643;BME280;11998;55.788;37.572;2022-10-16T03:15:04;100345.72;;;4.96;100.00
23643;BME280;11998;55.788;37.572;2022-10-16T03:16:05;100355.38;;;4.97;100.00
23643;BME280;11998;55.788;37.572;2022-10-16T03:17:06;100348.34;;;4.96;100.00
23643;BME280;11998;55.788;37.572;2022-10-16T03:18:06;100350.91;;;4.95;100.00
23643;BME280;11998;55.788;37.572;2022-10-16T03:19:07;100350.00;;;4.91;100.00
23643;BME280;11998;55.788;37.572;2022-10-16T03:20:08;100349.13;;;4.92;100.00
23643;BME280;11998;55.788;37.572;2022-10-16T03:21:08;100351.78;;;4.92;100.00
23643;BME280;11998;55.788;37.572;2022-10-16T03:22:09;100345.59;;;4.87;100.00
23643;BME280;11998;55.788;37.572;2022-10-16T03:23:09;100346.44;;;4.86;100.00
23643;BME280;11998;55.788;37.572;2022-10-16T03:24:10;100348.16;;;4.84;100.00
23643;BME280;11998;55.788;37.572;2022-10-16T03:25:11;100351.63;;;4.83;100.00
23643;BME280;11998;55.788;37.572;2022-10-16T03:26:11;100353.44;;;4.87;100.00
23643;BME280;11998;55.788;37.572;2022-10-16T03:27:12;100354.22;;;4.82;100.00
23643;BME280;11998;55.788;37.572;2022-10-16T03:28:13;100355.09;;;4.82;100.00
23643;BME280;11998;55.788;37.572;2022-10-16T03:29:13;100353.41;;;4.84;100.00
23643;BME280;11998;55.788;37.572;2022-10-16T03:30:14;100351.69;;;4.86;100.00
23643;BME280;11998;55.788;37.572;2022-10-16T03:31:14;100351.63;;;4.83;100.00
23643;BME280;11998;55.788;37.572;2022-10-16T03:32:15;100352.47;;;4.82;100.00
23643;BME280;11998;55.788;37.572;2022-10-16T03:33:15;100359.47;;;4.82;100.00
23643;BME280;11998;55.788;37.572;2022-10-16T03:34:16;100362.09;;;4.80;100.00
23643;BME280;11998;55.788;37.572;2022-10-16T03:35:16;100353.31;;;4.78;100.00
23643;BME280;11998;55.788;37.572;2022-10-16T03:36:16;100358.53;;;4.77;100.00
23643;BME280;11998;55.788;37.572;2022-10-16T03:37:17;100358.56;;;4.78;100.00
23643;BME280;11998;55.788;37.572;2022-10-16T03:38:17;100359.44;;;4.79;100.00
23643;BME280;11998;55.788;37.572;2022-10-16T03:39:18;100355.91;;;4.77;100.00
23643;BME280;11998;55.788;37.572;2022-10-16T03:40:19;100355.03;;;4.76;100.00
23643;BME280;11998;55.788;37.572;2022-10-16T03:41:19;100367.25;;;4.74;100.00
23643;BME280;11998;55.788;37.572;2022-10-16T03:42:20;100362.03;;;4.77;100.00
23643;BME280;11998;55.788;37.572;2022-10-16T03:43:21;100367.25;;;4.74;100.00
23643;BME280;11998;55.788;37.572;2022-10-16T03:44:21;100362.88;;;4.75;100.00
23643;BME280;11998;55.788;37.572;2022-10-16T03:45:22;100365.47;;;4.73;100.00
23643;BME280;11998;55.788;37.572;2022-10-16T03:46:22;100360.25;;;4.73;100.00
23643;BME280;11998;55.788;37.572;2022-10-16T03:47:23;100364.56;;;4.71;100.00
23643;BME280;11998;55.788;37.572;2022-10-16T03:48:23;100361.88;;;4.68;100.00
23643;BME280;11998;55.788;37.572;2022-10-16T03:49:24;100363.66;;;4.69;100.00
23643;BME280;11998;55.788;37.572;2022-10-16T03:50:24;100368.00;;;4.67;100.00
23643;BME280;11998;55.788;37.572;2022-10-16T03:51:25;100365.38;;;4.67;100.00
23643;BME280;11998;55.788;37.572;2022-10-16T03:52:25;100361.91;;;4.69;100.00
23643;BME280;11998;55.788;37.572;2022-10-16T03:53:26;100368.91;;;4.69;100.00
23643;BME280;11998;55.788;37.572;2022-10-16T03:54:26;100366.22;;;4.66;100.00
23643;BME280;11998;55.788;37.572;2022-10-16T03:55:27;100363.59;;;4.64;100.00
23643;BME280;11998;55.788;37.572;2022-10-16T03:56:27;100367.09;;;4.65;100.00
23643;BME280;11998;55.788;37.572;2022-10-16T03:57:28;100372.34;;;4.65;100.00
23643;BME280;11998;55.788;37.572;2022-10-16T03:58:28;100372.34;;;4.65;100.00
23643;BME280;11998;55.788;37.572;2022-10-16T03:59:29;100363.56;;;4.63;100.00
23643;BME280;11998;55.788;37.572;2022-10-16T04:00:29;100371.47;;;4.66;100.00
23643;BME280;11998;55.788;37.572;2022-10-16T04:01:30;100361.81;;;4.62;100.00
23643;BME280;11998;55.788;37.572;2022-10-16T04:02:31;100367.06;;;4.62;100.00
23643;BME280;11998;55.788;37.572;2022-10-16T04:03:31;100367.91;;;4.61;100.00
23643;BME280;11998;55.788;37.572;2022-10-16T04:04:33;100367.06;;;4.62;100.00
23643;BME280;11998;55.788;37.572;2022-10-16T04:05:34;100363.56;;;4.63;100.00
23643;BME280;11998;55.788;37.572;2022-10-16T04:06:34;100361.72;;;4.59;100.00
23643;BME280;11998;55.788;37.572;2022-10-16T04:07:35;100360.91;;;4.60;100.00
23643;BME280;11998;55.788;37.572;2022-10-16T04:08:36;100369.59;;;4.59;100.00
23643;BME280;11998;55.788;37.572;2022-10-16T04:09:37;100360.09;;;4.64;100.00
23643;BME280;11998;55.788;37.572;2022-10-16T04:10:37;100363.53;;;4.60;100.00
23643;BME280;11998;55.788;37.572;2022-10-16T04:11:38;100365.28;;;4.61;100.00
23643;BME280;11998;55.788;37.572;2022-10-16T04:12:39;100367.06;;;4.62;100.00
23643;BME280;11998;55.788;37.572;2022-10-16T04:13:39;100367.06;;;4.62;100.00
23643;BME280;11998;55.788;37.572;2022-10-16T04:14:40;100370.59;;;4.65;100.00
23643;BME280;11998;55.788;37.572;2022-10-16T04:15:40;100372.28;;;4.62;100.00
23643;BME280;11998;55.788;37.572;2022-10-16T04:16:41;100366.22;;;4.64;100.00
23643;BME280;11998;55.788;37.572;2022-10-16T04:17:41;100367.06;;;4.62;100.00
23643;BME280;11998;55.788;37.572;2022-10-16T04:18:42;100363.56;;;4.63;100.00
23643;BME280;11998;55.788;37.572;2022-10-16T04:19:42;100365.28;;;4.61;100.00
23643;BME280;11998;55.788;37.572;2022-10-16T04:20:43;100364.47;;;4.65;100.00
23643;BME280;11998;55.788;37.572;2022-10-16T04:21:44;100363.53;;;4.61;100.00
23643;BME280;11998;55.788;37.572;2022-10-16T04:22:44;100365.34;;;4.64;100.00
23643;BME280;11998;55.788;37.572;2022-10-16T04:23:45;100363.56;;;4.63;100.00
23643;BME280;11998;55.788;37.572;2022-10-16T04:24:45;100367.97;;;4.65;100.00
23643;BME280;11998;55.788;37.572;2022-10-16T04:25:46;100361.81;;;4.62;100.00
23643;BME280;11998;55.788;37.572;2022-10-16T04:26:46;100367.09;;;4.65;100.00
23643;BME280;11998;55.788;37.572;2022-10-16T04:27:47;100367.94;;;4.62;100.00
23643;BME280;11998;55.788;37.572;2022-10-16T04:28:47;100374.09;;;4.66;100.00
23643;BME280;11998;55.788;37.572;2022-10-16T04:29:48;100367.06;;;4.62;100.00
23643;BME280;11998;55.788;37.572;2022-10-16T04:30:48;100372.34;;;4.65;100.00
23643;BME280;11998;55.788;37.572;2022-10-16T04:31:49;100368.81;;;4.63;100.00
23643;BME280;11998;55.788;37.572;2022-10-16T04:32:51;100374.97;;;4.65;100.00
23643;BME280;11998;55.788;37.572;2022-10-16T04:33:51;100367.13;;;4.68;100.00
23643;BME280;11998;55.788;37.572;2022-10-16T04:34:52;100367.94;;;4.64;100.00
23643;BME280;11998;55.788;37.572;2022-10-16T04:35:57;100365.38;;;4.68;100.00
23643;BME280;11998;55.788;37.572;2022-10-16T04:36:58;100372.38;;;4.68;100.00
23643;BME280;11998;55.788;37.572;2022-10-16T04:37:58;100372.34;;;4.65;100.00
23643;BME280;11998;55.788;37.572;2022-10-16T04:38:59;100375.88;;;4.68;100.00
23643;BME280;11998;55.788;37.572;2022-10-16T04:39:59;100373.25;;;4.67;100.00
23643;BME280;11998;55.788;37.572;2022-10-16T04:41:00;100377.63;;;4.68;100.00
23643;BME280;11998;55.788;37.572;2022-10-16T04:42:00;100370.63;;;4.68;100.00
23643;BME280;11998;55.788;37.572;2022-10-16T04:43:01;100369.78;;;4.69;100.00
23643;BME280;11998;55.788;37.572;2022-10-16T04:44:01;100374.16;;;4.69;100.00
23643;BME280;11998;55.788;37.572;2022-10-16T04:45:03;100370.66;;;4.70;100.00
23643;BME280;11998;55.788;37.572;2022-10-16T04:46:04;100373.25;;;4.68;100.00
23643;BME280;11998;55.788;37.572;2022-10-16T04:47:05;100379.41;;;4.69;100.00
23643;BME280;11998;55.788;37.572;2022-10-16T04:48:05;100372.50;;;4.74;100.00
23643;BME280;11998;55.788;37.572;2022-10-16T04:49:06;100377.75;;;4.74;100.00
23643;BME280;11998;55.788;37.572;2022-10-16T04:50:06;100382.19;;;4.80;100.00
23643;BME280;11998;55.788;37.572;2022-10-16T04:51:07;100375.16;;;4.76;100.00
23643;BME280;11998;55.788;37.572;2022-10-16T04:52:08;100381.25;;;4.75;100.00
23643;BME280;11998;55.788;37.572;2022-10-16T04:53:09;100383.00;;;4.74;100.00
23643;BME280;11998;55.788;37.572;2022-10-16T04:54:10;100386.56;;;4.79;100.00
23643;BME280;11998;55.788;37.572;2022-10-16T04:55:10;100390.09;;;4.81;100.00
23643;BME280;11998;55.788;37.572;2022-10-16T04:56:11;100385.81;;;4.86;100.00
23643;BME280;11998;55.788;37.572;2022-10-16T04:57:11;100386.59;;;4.82;100.00
23643;BME280;11998;55.788;37.572;2022-10-16T04:58:12;100385.75;;;4.83;100.00
23643;BME280;11998;55.788;37.572;2022-10-16T04:59:17;100384.13;;;4.91;100.00
23643;BME280;11998;55.788;37.572;2022-10-16T05:00:17;100375.34;;;4.88;100.00
23643;BME280;11998;55.788;37.572;2022-10-16T05:01:18;100383.31;;;4.95;100.00
23643;BME280;11998;55.788;37.572;2022-10-16T05:02:19;100378.13;;;4.98;100.00
23643;BME280;11998;55.788;37.572;2022-10-16T05:03:20;100378.13;;;4.98;100.00
23643;BME280;11998;55.788;37.572;2022-10-16T05:04:20;100383.41;;;5.01;100.00
23643;BME280;11998;55.788;37.572;2022-10-16T05:05:21;100378.19;;;5.05;100.00
23643;BME280;11998;55.788;37.572;2022-10-16T05:06:23;100381.72;;;5.07;100.00
23643;BME280;11998;55.788;37.572;2022-10-16T05:07:23;100383.50;;;5.08;100.00
23643;BME280;11998;55.788;37.572;2022-10-16T05:08:24;100381.81;;;5.10;100.00
23643;BME280;11998;55.788;37.572;2022-10-16T05:09:24;100380.03;;;5.09;100.00
23643;BME280;11998;55.788;37.572;2022-10-16T05:10:25;100380.06;;;5.12;100.00
23643;BME280;11998;55.788;37.572;2022-10-16T05:11:25;100386.19;;;5.11;100.00
23643;BME280;11998;55.788;37.572;2022-10-16T05:12:26;100374.81;;;5.10;100.00
23643;BME280;11998;55.788;37.572;2022-10-16T05:13:26;100382.72;;;5.13;100.00
23643;BME280;11998;55.788;37.572;2022-10-16T05:14:27;100377.47;;;5.13;100.00
23643;BME280;11998;55.788;37.572;2022-10-16T05:15:27;100377.47;;;5.15;100.00
23643;BME280;11998;55.788;37.572;2022-10-16T05:16:29;100378.41;;;5.20;100.00
23643;BME280;11998;55.788;37.572;2022-10-16T05:17:30;100386.34;;;5.21;100.00
23643;BME280;11998;55.788;37.572;2022-10-16T05:18:31;100379.25;;;5.17;100.00
23643;BME280;11998;55.788;37.572;2022-10-16T05:19:32;100373.13;;;5.17;100.00
23643;BME280;11998;55.788;37.572;2022-10-16T05:20:32;100386.28;;;5.20;100.00
23643;BME280;11998;55.788;37.572;2022-10-16T05:21:33;100385.50;;;5.24;100.00
23643;BME280;11998;55.788;37.572;2022-10-16T05:22:33;100380.25;;;5.24;100.00
23643;BME280;11998;55.788;37.572;2022-10-16T05:23:34;100388.16;;;5.27;100.00
23643;BME280;11998;55.788;37.572;2022-10-16T05:24:34;100383.81;;;5.30;100.00
23643;BME280;11998;55.788;37.572;2022-10-16T05:25:35;100389.16;;;5.34;100.00
23643;BME280;11998;55.788;37.572;2022-10-16T05:26:36;100382.19;;;5.37;100.00
23643;BME280;11998;55.788;37.572;2022-10-16T05:27:36;100383.97;;;5.40;100.00
23643;BME280;11998;55.788;37.572;2022-10-16T05:28:37;100385.75;;;5.42;100.00
23643;BME280;11998;55.788;37.572;2022-10-16T05:29:37;100378.75;;;5.44;100.00
23643;BME280;11998;55.788;37.572;2022-10-16T05:30:38;100391.03;;;5.45;100.00
23643;BME280;11998;55.788;37.572;2022-10-16T05:31:38;100387.56;;;5.46;100.00
23643;BME280;11998;55.788;37.572;2022-10-16T05:32:39;100385.00;;;5.52;100.00
23643;BME280;11998;55.788;37.572;2022-10-16T05:33:40;100390.25;;;5.51;100.00
23643;BME280;11998;55.788;37.572;2022-10-16T05:34:41;100388.53;;;5.56;100.00
23643;BME280;11998;55.788;37.572;2022-10-16T05:35:41;100393.00;;;5.58;100.00